LFMO 301030Z AUTO VRB04KT CAVOK 23/11 Q1017 NOSIG

ElémentsDécodage
LFMO Station météo située sur l'aérodrome de ORANGE Caritat
301030Z émis le 30 du mois à 10h30 UTC
AUTO Bulletin édité par un automate
VRB04KT vent de direction variable, 04 noeuds
CAVOK Ceiling And Visibility OK
- Visibilité de 10 Km ou plus
- Pas de nuage au-dessous de 1500m ou au-dessous de l'altitude minimale du secteur la plus élevée (si>1500m) et absence de CB
- pas de temps présent significatif
23/11 température 23°C, point de rosée 11°C
 soit une humidité relative de 47%
Q1017 la pression au niveau de la mer (QNH) est de 1017 hPa
NOSIG Pas de changement significatif prévu au cours des deux heures suivant l'heure de l'observation